aviador You're here:

RKNY Decoded Metar

YANGKU in KOREA
Report Time2017-10-17 11:00:00
UTC Time2017-10-17 11:17:14
Flight Rules vfr VFR
Wind260° at 02 kt
W.Decomp.*RWY 33: 0.9 kt HW 1.8 kt LCW
W.Rank260° ranks 1
Current wind is below 260° avg. (9.2)
Visibility9999 m
Phenomena:N/A
Clouds:Scattered 025 Hf
Broken 120 Hf
Expected CloudBase > 800 ft AGL from Temp-Dew spread
Ceiling12,000 ft
Temp14°C (ISA -1)
Dew Point12°C (88% RH)
AAT13.9°C
QNH1025 hPa
Density Alt-36 ft
Elevation243 ft
Report Wrong Elevation
Raw Report
RKNY 171100Z 26002KT 9999 SCT025 BKN120 14/12 Q1025 NOSIG=

Extra information for RKNY:More info

Metar Taf Metar & Taf Last 4 Metars F.Rules Stats Wind Profile Meteogram Temp Stats Airport Information Weather charts Add Link Nearby VenuesMetar ALERT Operation Metar Decoded Social comments